createdAt,value
2024-04-21T00:01:24.333Z,55.40
2024-04-21T00:03:51.768Z,55.40
2024-04-21T00:06:21.882Z,55.30
2024-04-21T00:08:48.765Z,55.40
2024-04-21T00:11:18.531Z,55.40
2024-04-21T00:13:45.667Z,55.40
2024-04-21T00:16:15.745Z,55.50
2024-04-21T00:18:45.616Z,55.60
2024-04-21T00:21:15.914Z,55.50
2024-04-21T00:23:42.994Z,55.60
2024-04-21T00:26:12.691Z,55.70
2024-04-21T00:28:39.872Z,55.70
2024-04-21T00:31:09.838Z,55.80
2024-04-21T00:33:36.819Z,55.90
2024-04-21T00:36:09.724Z,56.00
2024-04-21T00:38:36.857Z,56.00
2024-04-21T00:41:06.846Z,56.10
2024-04-21T00:43:33.784Z,56.20
2024-04-21T00:46:05.269Z,56.20
2024-04-21T00:48:33.971Z,56.20
2024-04-21T00:51:05.114Z,56.10
2024-04-21T00:53:35.604Z,56.20
2024-04-21T00:56:05.653Z,56.20
2024-04-21T00:58:32.866Z,56.30
2024-04-21T01:01:04.052Z,56.20
2024-04-21T01:03:31.430Z,56.40
2024-04-21T01:06:01.205Z,56.40
2024-04-21T01:08:28.636Z,56.40
2024-04-21T01:11:00.999Z,57.00
2024-04-21T01:13:28.104Z,56.40
2024-04-21T01:15:57.953Z,56.30
2024-04-21T01:18:25.112Z,57.00
2024-04-21T01:20:54.958Z,57.00
2024-04-21T01:23:24.715Z,56.40
2024-04-21T01:25:54.428Z,56.50
2024-04-21T01:28:21.589Z,56.50
2024-04-21T01:30:51.339Z,56.50
2024-04-21T01:33:18.489Z,56.60
2024-04-21T01:35:50.260Z,56.60
2024-04-21T01:38:17.942Z,56.70
2024-04-21T01:40:50.744Z,56.60
2024-04-21T01:43:17.913Z,56.40
2024-04-21T01:45:47.672Z,55.50
2024-04-21T01:48:14.801Z,58.30
2024-04-21T01:50:44.542Z,58.00
2024-04-21T01:53:11.630Z,57.90
2024-04-21T01:55:41.351Z,57.70
2024-04-21T01:58:11.296Z,57.80
2024-04-21T02:00:41.177Z,57.60
2024-04-21T02:03:08.315Z,57.60
2024-04-21T02:05:38.068Z,57.60
2024-04-21T02:08:06.155Z,57.60
2024-04-21T02:10:35.865Z,57.50
2024-04-21T02:13:03.106Z,57.30
2024-04-21T02:15:35.549Z,57.30
2024-04-21T02:18:02.769Z,57.20
2024-04-21T02:20:32.652Z,57.30
2024-04-21T02:22:59.827Z,57.20
2024-04-21T02:25:29.545Z,57.10
2024-04-21T02:27:56.674Z,57.10
2024-04-21T02:30:26.782Z,57.10
2024-04-21T02:32:56.973Z,57.10
2024-04-21T02:35:26.762Z,57.10
2024-04-21T02:37:53.862Z,57.10
2024-04-21T02:40:23.642Z,57.70
2024-04-21T02:42:50.829Z,57.10
2024-04-21T02:45:20.880Z,57.00
2024-04-21T02:47:48.157Z,57.00
2024-04-21T02:50:20.542Z,57.20
2024-04-21T02:52:47.648Z,57.20
2024-04-21T02:55:18.274Z,57.10
2024-04-21T02:57:45.447Z,57.00
2024-04-21T03:00:16.117Z,56.90
2024-04-21T03:02:43.305Z,56.90
2024-04-21T03:05:13.433Z,56.80
2024-04-21T03:07:43.185Z,56.80
2024-04-21T03:10:13.014Z,56.80
2024-04-21T03:12:40.178Z,56.80
2024-04-21T03:15:10.051Z,56.80
2024-04-21T03:17:37.228Z,56.70
2024-04-21T03:20:07.646Z,56.70
2024-04-21T03:22:34.825Z,56.70
2024-04-21T03:25:07.741Z,56.70
2024-04-21T03:27:34.953Z,56.60
2024-04-21T03:30:04.761Z,56.70
2024-04-21T03:32:31.991Z,56.70
2024-04-21T03:35:01.759Z,56.80
2024-04-21T03:37:32.038Z,56.80
2024-04-21T03:40:03.962Z,56.80
2024-04-21T03:42:37.388Z,57.40
2024-04-21T03:45:09.757Z,56.80
2024-04-21T03:47:39.682Z,56.90
2024-04-21T03:50:07.214Z,57.00
2024-04-21T03:52:36.947Z,56.90
2024-04-21T03:55:04.530Z,56.90
2024-04-21T03:57:37.949Z,56.70
2024-04-21T04:00:06.378Z,56.50
2024-04-21T04:02:36.093Z,56.40
2024-04-21T04:05:04.182Z,56.20
2024-04-21T04:07:33.993Z,56.70
2024-04-21T04:10:01.248Z,55.90
2024-04-21T04:12:31.043Z,55.70
2024-04-21T04:15:00.832Z,55.70
2024-04-21T04:17:30.637Z,55.60
2024-04-21T04:19:57.782Z,55.60
2024-04-21T04:22:27.594Z,55.40
2024-04-21T04:24:54.744Z,55.90
2024-04-21T04:27:24.515Z,55.30
2024-04-21T04:29:51.614Z,55.90
2024-04-21T04:32:23.958Z,55.20
2024-04-21T04:34:52.468Z,55.20
2024-04-21T04:37:22.679Z,55.50
2024-04-21T04:39:49.799Z,55.60
2024-04-21T04:42:19.641Z,55.60
2024-04-21T04:44:46.753Z,55.60
2024-04-21T04:47:16.538Z,55.60
2024-04-21T04:49:46.340Z,55.70
2024-04-21T04:52:16.202Z,55.70
2024-04-21T04:54:43.154Z,55.70
2024-04-21T04:57:12.882Z,55.60
2024-04-21T04:59:40.073Z,55.50
2024-04-21T05:02:09.765Z,55.30
2024-04-21T05:04:37.019Z,55.10
2024-04-21T05:07:12.528Z,55.10
2024-04-21T05:09:41.151Z,54.80
2024-04-21T05:12:11.201Z,54.70
2024-04-21T05:14:38.322Z,54.70
2024-04-21T05:17:08.156Z,54.60
2024-04-21T05:19:35.328Z,54.50
2024-04-21T05:22:05.121Z,55.20
2024-04-21T05:24:34.951Z,54.70
2024-04-21T05:27:05.016Z,54.70
2024-04-21T05:29:32.308Z,56.00
2024-04-21T05:32:02.061Z,54.10
2024-04-21T05:34:30.155Z,51.50
2024-04-21T05:36:59.965Z,48.00
2024-04-21T05:39:27.064Z,47.20
2024-04-21T05:42:00.366Z,46.00
2024-04-21T05:44:28.863Z,45.70
2024-04-21T05:46:58.568Z,46.20
2024-04-21T05:49:28.305Z,47.40
2024-04-21T05:51:55.446Z,47.40
2024-04-21T05:54:25.176Z,48.00
2024-04-21T05:56:52.256Z,46.10
2024-04-21T05:59:26.191Z,47.60
2024-04-21T06:01:55.056Z,48.10
2024-04-21T06:04:25.227Z,48.40
2024-04-21T06:06:52.470Z,48.80
2024-04-21T06:09:22.262Z,49.20
2024-04-21T06:11:49.452Z,49.80
2024-04-21T06:14:19.211Z,50.40
2024-04-21T06:16:48.892Z,50.60
2024-04-21T06:19:18.648Z,51.10
2024-04-21T06:21:45.780Z,51.10
2024-04-21T06:24:15.529Z,51.20
2024-04-21T06:26:44.803Z,51.10
2024-04-21T06:29:15.845Z,50.70
2024-04-21T06:31:43.497Z,50.50
2024-04-21T06:34:15.882Z,50.70
2024-04-21T06:36:43.000Z,50.70
2024-04-21T06:39:12.794Z,50.40
2024-04-21T06:41:39.760Z,50.40
2024-04-21T06:44:09.498Z,50.50
2024-04-21T06:46:36.622Z,50.20
2024-04-21T06:49:06.424Z,49.90
2024-04-21T06:51:37.097Z,49.50
2024-04-21T06:54:06.991Z,50.10
2024-04-21T06:56:33.919Z,50.90
2024-04-21T06:59:03.617Z,48.20
2024-04-21T07:01:30.839Z,47.10
2024-04-21T07:04:00.781Z,46.20
2024-04-21T07:06:27.704Z,46.10
2024-04-21T07:09:00.039Z,44.50
2024-04-21T07:11:27.249Z,44.30
2024-04-21T07:14:06.226Z,44.10
2024-04-21T07:16:41.668Z,45.40
2024-04-21T07:19:11.470Z,45.80
2024-04-21T07:21:38.576Z,45.70
2024-04-21T07:24:11.221Z,45.90
2024-04-21T07:26:38.332Z,46.30
2024-04-21T07:29:08.398Z,46.60
2024-04-21T07:31:35.492Z,46.60
2024-04-21T07:34:05.275Z,45.90
2024-04-21T07:36:32.395Z,45.60
2024-04-21T07:39:02.111Z,45.50
2024-04-21T07:41:32.102Z,45.30
2024-04-21T07:44:01.801Z,45.20
2024-04-21T07:46:28.990Z,45.20
2024-04-21T07:48:58.821Z,45.40
2024-04-21T07:51:25.963Z,46.00
2024-04-21T07:53:55.647Z,45.60
2024-04-21T07:56:22.782Z,45.60
2024-04-21T07:58:55.101Z,44.80
2024-04-21T08:01:22.349Z,43.50
2024-04-21T08:03:52.218Z,42.40
2024-04-21T08:06:21.762Z,43.40
2024-04-21T08:08:53.665Z,44.80
2024-04-21T08:11:27.781Z,45.60
2024-04-21T08:13:58.387Z,46.50
2024-04-21T08:16:29.062Z,46.90
2024-04-21T08:18:56.952Z,47.20
2024-04-21T08:21:26.761Z,47.50
2024-04-21T08:23:53.887Z,47.60
2024-04-21T08:26:24.957Z,47.70
2024-04-21T08:28:52.342Z,48.50
2024-04-21T08:31:24.935Z,48.00
2024-04-21T08:33:52.118Z,48.00
2024-04-21T08:36:21.830Z,48.10
2024-04-21T08:38:48.946Z,48.00
2024-04-21T08:41:24.332Z,48.30
2024-04-21T08:43:52.430Z,48.60
2024-04-21T08:46:25.170Z,48.70
2024-04-21T08:48:53.490Z,49.70
2024-04-21T08:51:24.798Z,50.00
2024-04-21T08:53:51.928Z,49.90
2024-04-21T08:56:22.909Z,49.90
2024-04-21T08:58:52.173Z,49.40
2024-04-21T09:01:26.438Z,49.40
2024-04-21T09:03:54.029Z,49.50
2024-04-21T09:06:27.005Z,49.70
2024-04-21T09:08:54.635Z,49.20
2024-04-21T09:11:24.405Z,49.00
2024-04-21T09:13:51.311Z,48.70
2024-04-21T09:16:21.161Z,48.00
2024-04-21T09:18:50.855Z,47.90
2024-04-21T09:21:20.909Z,48.40
2024-04-21T09:23:47.988Z,48.60
2024-04-21T09:26:20.854Z,48.90
2024-04-21T09:28:49.245Z,49.00
2024-04-21T09:31:19.144Z,49.10
2024-04-21T09:33:46.790Z,49.40
2024-04-21T09:36:19.151Z,48.40
2024-04-21T09:38:50.670Z,47.40
2024-04-21T09:41:18.658Z,47.60
2024-04-21T09:43:49.987Z,47.20
2024-04-21T09:46:20.434Z,45.20
2024-04-21T09:48:53.106Z,42.80
2024-04-21T09:51:24.868Z,43.40
2024-04-21T09:53:57.501Z,44.80
2024-04-21T09:56:34.412Z,47.00
2024-04-21T09:59:06.661Z,42.50
2024-04-21T10:01:36.964Z,42.40
2024-04-21T10:04:11.740Z,43.70
2024-04-21T10:06:44.351Z,44.50
2024-04-21T10:09:13.953Z,45.40
2024-04-21T10:11:43.686Z,45.20
2024-04-21T10:14:11.281Z,46.00
2024-04-21T10:16:42.846Z,46.90
2024-04-21T10:19:09.986Z,47.30
2024-04-21T10:21:39.580Z,47.70
2024-04-21T10:24:09.196Z,48.00
2024-04-21T10:26:38.708Z,48.30
2024-04-21T10:29:09.252Z,48.70
2024-04-21T10:31:38.902Z,47.50
2024-04-21T10:34:06.752Z,46.40
2024-04-21T10:36:42.698Z,46.60
2024-04-21T10:39:23.284Z,47.00
2024-04-21T10:41:54.625Z,47.50
2024-04-21T10:44:22.155Z,45.10
2024-04-21T10:46:51.649Z,47.00
2024-04-21T10:49:18.594Z,47.60
2024-04-21T10:51:48.346Z,48.00
2024-04-21T10:54:18.038Z,48.50
2024-04-21T10:56:47.668Z,48.40
2024-04-21T10:59:14.585Z,46.50
2024-04-21T11:01:44.397Z,46.70
2024-04-21T11:04:11.402Z,47.10
2024-04-21T11:06:41.244Z,47.00
2024-04-21T11:09:10.221Z,48.10
2024-04-21T11:11:43.327Z,49.20
2024-04-21T11:14:10.231Z,50.40
2024-04-21T11:16:39.725Z,50.90
2024-04-21T11:19:07.197Z,50.90
2024-04-21T11:21:36.878Z,51.80
2024-04-21T11:24:04.142Z,51.70
2024-04-21T11:26:33.927Z,50.70
2024-04-21T11:29:03.544Z,49.60
2024-04-21T11:31:33.287Z,49.20
2024-04-21T11:34:03.819Z,49.50
2024-04-21T11:36:33.803Z,48.00
2024-04-21T11:39:00.719Z,48.60
2024-04-21T11:41:30.246Z,45.30
2024-04-21T11:43:57.609Z,42.80
2024-04-21T11:46:29.914Z,44.20
2024-04-21T11:48:57.020Z,44.80
2024-04-21T11:51:26.614Z,45.00
2024-04-21T11:53:53.542Z,46.70
2024-04-21T11:56:23.495Z,47.10
2024-04-21T11:58:50.393Z,47.80
2024-04-21T12:01:25.325Z,48.00
2024-04-21T12:04:02.078Z,47.70
2024-04-21T12:06:31.635Z,46.10
2024-04-21T12:08:59.048Z,45.30
2024-04-21T12:11:28.610Z,44.80
2024-04-21T12:14:15.849Z,44.60
2024-04-21T12:16:45.452Z,44.40
2024-04-21T12:19:15.645Z,44.60
2024-04-21T12:21:45.191Z,44.70
2024-04-21T12:24:12.130Z,44.30
2024-04-21T12:26:41.655Z,44.20
2024-04-21T12:29:08.549Z,44.30
2024-04-21T12:31:38.091Z,44.10
2024-04-21T12:34:05.399Z,44.20
2024-04-21T12:36:40.079Z,44.20
2024-04-21T12:39:08.295Z,44.80
2024-04-21T12:41:38.342Z,45.40
2024-04-21T12:44:05.438Z,45.90
2024-04-21T12:46:35.078Z,46.30
2024-04-21T12:49:03.073Z,46.10
2024-04-21T12:51:32.676Z,45.40
2024-04-21T12:54:02.201Z,44.60
2024-04-21T12:56:32.496Z,44.50
2024-04-21T12:58:59.408Z,43.80
2024-04-21T13:01:29.156Z,44.00
2024-04-21T13:03:56.237Z,43.60
2024-04-21T13:06:27.591Z,43.50
2024-04-21T13:08:55.894Z,43.80
2024-04-21T13:11:28.218Z,43.20
2024-04-21T13:13:55.217Z,43.10
2024-04-21T13:16:24.758Z,43.90
2024-04-21T13:18:52.824Z,44.70
2024-04-21T13:21:22.417Z,44.50
2024-04-21T13:23:50.905Z,44.90
2024-04-21T13:26:20.471Z,45.70
2024-04-21T13:28:51.109Z,46.10
2024-04-21T13:31:20.715Z,46.50
2024-04-21T13:33:47.670Z,46.70
2024-04-21T13:36:27.697Z,46.80
2024-04-21T13:39:01.743Z,46.60
2024-04-21T13:41:32.914Z,45.30
2024-04-21T13:44:03.756Z,43.80
2024-04-21T13:46:33.668Z,43.20
2024-04-21T13:49:00.697Z,42.70
2024-04-21T13:51:32.682Z,42.20
2024-04-21T13:54:00.950Z,42.10
2024-04-21T13:56:30.611Z,41.90
2024-04-21T13:58:57.568Z,42.40
2024-04-21T14:01:29.895Z,42.90
2024-04-21T14:03:56.980Z,43.40
2024-04-21T14:06:30.367Z,44.10
2024-04-21T14:08:57.325Z,44.50
2024-04-21T14:11:27.321Z,44.90
2024-04-21T14:13:55.097Z,45.30
2024-04-21T14:16:24.766Z,45.10
2024-04-21T14:18:56.272Z,43.20
2024-04-21T14:21:27.547Z,43.50
2024-04-21T14:23:54.495Z,41.20
2024-04-21T14:26:24.015Z,40.70
2024-04-21T14:28:51.134Z,40.60
2024-04-21T14:31:21.017Z,42.30
2024-04-21T14:33:48.272Z,43.60
2024-04-21T14:36:23.452Z,44.00
2024-04-21T14:38:51.699Z,42.10
2024-04-21T14:41:21.238Z,38.70
2024-04-21T14:43:48.181Z,36.60
2024-04-21T14:46:17.790Z,34.60
2024-04-21T14:48:44.717Z,33.50
2024-04-21T14:51:14.231Z,34.30
2024-04-21T14:53:43.781Z,34.80
2024-04-21T14:56:15.052Z,35.70
2024-04-21T14:58:41.964Z,35.60
2024-04-21T15:01:11.557Z,35.00
2024-04-21T15:03:38.592Z,35.00
2024-04-21T15:06:08.277Z,37.40
2024-04-21T15:08:35.212Z,39.40
2024-04-21T15:11:07.661Z,40.70
2024-04-21T15:13:34.618Z,41.60
2024-04-21T15:16:04.184Z,41.20
2024-04-21T15:18:31.375Z,38.10
2024-04-21T15:21:01.017Z,36.90
2024-04-21T15:23:27.947Z,36.30
2024-04-21T15:25:57.463Z,37.00
2024-04-21T15:28:27.043Z,38.10
2024-04-21T15:30:58.303Z,39.00
2024-04-21T15:33:25.756Z,39.70
2024-04-21T15:35:55.411Z,40.30
2024-04-21T15:38:22.289Z,40.60
2024-04-21T15:40:52.584Z,40.70
2024-04-21T15:43:19.618Z,41.10
2024-04-21T15:45:51.819Z,41.90
2024-04-21T15:48:18.740Z,42.80
2024-04-21T15:50:48.840Z,33.40
2024-04-21T15:53:15.740Z,31.30
2024-04-21T15:55:46.510Z,31.70
2024-04-21T15:58:13.583Z,32.80
2024-04-21T16:00:45.554Z,31.70
2024-04-21T16:03:15.187Z,33.50
2024-04-21T16:05:45.191Z,33.50
2024-04-21T16:08:12.091Z,34.50
2024-04-21T16:10:42.628Z,35.30
2024-04-21T16:13:09.641Z,35.40
2024-04-21T16:15:39.814Z,31.30
2024-04-21T16:18:06.746Z,30.20
2024-04-21T16:20:39.026Z,30.20
2024-04-21T16:23:05.933Z,30.00
2024-04-21T16:25:36.184Z,30.00
2024-04-21T16:28:05.705Z,31.00
2024-04-21T16:30:36.909Z,30.80
2024-04-21T16:33:04.381Z,28.90
2024-04-21T16:35:34.396Z,28.60
2024-04-21T16:38:04.383Z,28.90
2024-04-21T16:40:34.586Z,29.10
2024-04-21T16:43:01.885Z,29.30
2024-04-21T16:45:32.086Z,29.70
2024-04-21T16:48:05.028Z,30.00
2024-04-21T16:50:35.078Z,30.20
2024-04-21T16:53:05.064Z,30.60
2024-04-21T16:55:34.876Z,31.30
2024-04-21T16:58:03.630Z,31.60
2024-04-21T17:00:33.520Z,31.60
2024-04-21T17:03:00.790Z,31.70
2024-04-21T17:05:30.661Z,33.90
2024-04-21T17:08:02.328Z,34.30
2024-04-21T17:10:34.852Z,34.60
2024-04-21T17:13:01.806Z,35.00
2024-04-21T17:15:31.393Z,36.70
2024-04-21T17:17:58.873Z,37.40
2024-04-21T17:20:28.525Z,38.40
2024-04-21T17:22:55.425Z,39.00
2024-04-21T17:25:25.079Z,39.60
2024-04-21T17:27:54.718Z,39.70
2024-04-21T17:30:28.357Z,40.40
2024-04-21T17:32:56.147Z,40.40
2024-04-21T17:35:26.260Z,40.90
2024-04-21T17:37:53.188Z,40.90
2024-04-21T17:40:24.000Z,41.10
2024-04-21T17:42:55.081Z,41.10
2024-04-21T17:45:29.902Z,41.40
2024-04-21T17:47:56.919Z,41.30
2024-04-21T17:50:26.751Z,41.20
2024-04-21T17:52:54.328Z,42.30
2024-04-21T17:55:23.865Z,42.40
2024-04-21T17:57:50.991Z,43.30
2024-04-21T18:00:20.644Z,43.00
2024-04-21T18:02:50.328Z,43.60
2024-04-21T18:05:20.087Z,44.00
2024-04-21T18:07:47.324Z,44.40
2024-04-21T18:10:16.977Z,44.90
2024-04-21T18:12:43.949Z,45.10
2024-04-21T18:15:13.559Z,45.40
2024-04-21T18:17:40.581Z,45.50
2024-04-21T18:20:13.053Z,45.70
2024-04-21T18:22:40.004Z,45.80
2024-04-21T18:25:10.169Z,46.10
2024-04-21T18:27:37.091Z,43.60
2024-04-21T18:30:07.018Z,44.20
2024-04-21T18:32:33.988Z,44.30
2024-04-21T18:35:03.566Z,44.40
2024-04-21T18:37:33.151Z,45.30
2024-04-21T18:40:06.119Z,44.80
2024-04-21T18:42:33.171Z,44.90
2024-04-21T18:45:02.954Z,44.90
2024-04-21T18:47:30.829Z,44.90
2024-04-21T18:50:00.487Z,45.10
2024-04-21T18:52:27.643Z,45.10
2024-04-21T18:54:59.830Z,45.80
2024-04-21T18:57:26.723Z,45.10
2024-04-21T18:59:56.535Z,45.10
2024-04-21T19:02:23.515Z,45.10
2024-04-21T19:04:53.069Z,45.20
2024-04-21T19:07:19.990Z,45.30
2024-04-21T19:09:49.952Z,45.40
2024-04-21T19:12:19.907Z,45.40
2024-04-21T19:14:49.867Z,45.30
2024-04-21T19:17:17.013Z,45.40
2024-04-21T19:19:46.893Z,45.40
2024-04-21T19:22:14.052Z,45.40
2024-04-21T19:24:43.662Z,42.90
2024-04-21T19:27:10.544Z,41.50
2024-04-21T19:29:42.685Z,40.70
2024-04-21T19:32:11.288Z,43.20
2024-04-21T19:34:42.252Z,43.20
2024-04-21T19:37:10.381Z,43.40
2024-04-21T19:39:39.932Z,43.50
2024-04-21T19:42:06.860Z,43.80
2024-04-21T19:44:37.720Z,43.80
2024-04-21T19:47:07.440Z,43.70
2024-04-21T19:49:37.033Z,43.70
2024-04-21T19:52:04.783Z,41.50
2024-04-21T19:54:34.320Z,39.40
2024-04-21T19:57:02.098Z,43.00
2024-04-21T19:59:31.620Z,43.30
2024-04-21T20:01:58.653Z,43.60
2024-04-21T20:04:31.242Z,43.70
2024-04-21T20:06:58.194Z,43.60
2024-04-21T20:09:27.719Z,43.60
2024-04-21T20:11:54.638Z,43.50
2024-04-21T20:14:24.214Z,43.90
2024-04-21T20:17:09.740Z,43.70
2024-04-21T20:19:46.453Z,44.00
2024-04-21T20:22:16.036Z,44.00
2024-04-21T20:24:45.570Z,44.30
2024-04-21T20:27:15.086Z,44.20
2024-04-21T20:29:42.010Z,44.30
2024-04-21T20:32:11.590Z,44.50
2024-04-21T20:34:41.151Z,44.60
2024-04-21T20:37:10.712Z,44.90
2024-04-21T20:39:41.062Z,45.00
2024-04-21T20:42:08.024Z,44.80
2024-04-21T20:44:37.743Z,45.30
2024-04-21T20:47:04.883Z,45.40
2024-04-21T20:49:34.558Z,45.50
2024-04-21T20:52:04.514Z,45.60
2024-04-21T20:54:34.251Z,45.80
2024-04-21T20:57:01.980Z,45.80
2024-04-21T20:59:31.518Z,46.00
2024-04-21T21:01:59.485Z,46.20
2024-04-21T21:04:29.048Z,46.20
2024-04-21T21:06:56.032Z,46.30
2024-04-21T21:09:28.153Z,46.40
2024-04-21T21:11:55.050Z,46.50
2024-04-21T21:14:26.058Z,46.50
2024-04-21T21:16:52.935Z,46.60
2024-04-21T21:19:22.506Z,46.70
2024-04-21T21:21:49.464Z,46.70
2024-04-21T21:24:19.100Z,46.80
2024-04-21T21:26:48.898Z,46.90
2024-04-21T21:29:18.434Z,46.90
2024-04-21T21:31:45.394Z,47.00
2024-04-21T21:34:15.031Z,47.10
2024-04-21T21:36:41.936Z,47.20
2024-04-21T21:39:11.452Z,47.20
2024-04-21T21:41:38.376Z,47.30
2024-04-21T21:44:10.620Z,47.40
2024-04-21T21:46:37.575Z,47.50
2024-04-21T21:49:07.135Z,47.40
2024-04-21T21:51:34.104Z,47.50
2024-04-21T21:54:03.640Z,47.70
2024-04-21T21:56:30.559Z,47.60
2024-04-21T21:59:00.090Z,47.60
2024-04-21T22:01:29.776Z,47.60
2024-04-21T22:03:59.508Z,47.60
2024-04-21T22:06:26.443Z,47.50
2024-04-21T22:08:55.986Z,47.60
2024-04-21T22:11:23.514Z,47.60
2024-04-21T22:13:53.070Z,47.60
2024-04-21T22:16:20.022Z,47.70
2024-04-21T22:18:52.223Z,47.70
2024-04-21T22:21:19.174Z,47.70
2024-04-21T22:23:48.705Z,47.70
2024-04-21T22:26:15.865Z,47.70
2024-04-21T22:28:45.431Z,47.70
2024-04-21T22:31:12.386Z,47.60
2024-04-21T22:36:11.531Z,47.80
2024-04-21T22:38:41.056Z,47.80
2024-04-21T22:41:07.964Z,47.80
2024-04-21T22:43:37.580Z,47.60
2024-04-21T22:46:05.954Z,47.90
2024-04-21T22:48:36.684Z,47.80
2024-04-21T22:51:06.865Z,47.90
2024-04-21T22:53:36.385Z,47.90
2024-04-21T22:56:06.060Z,47.90
2024-04-21T22:58:33.076Z,47.80
2024-04-21T23:01:08.533Z,48.00
2024-04-21T23:03:36.649Z,48.10
2024-04-21T23:06:06.628Z,48.00
2024-04-21T23:08:36.196Z,48.60
2024-04-21T23:11:06.601Z,48.00
2024-04-21T23:13:33.674Z,47.90
2024-04-21T23:16:06.950Z,47.80
2024-04-21T23:18:33.953Z,47.80
2024-04-21T23:21:03.529Z,47.80
2024-04-21T23:23:30.467Z,48.10
2024-04-21T23:26:02.671Z,48.10
2024-04-21T23:28:29.647Z,48.00
2024-04-21T23:30:59.217Z,47.90
2024-04-21T23:33:26.116Z,48.00
2024-04-21T23:35:55.660Z,47.70
2024-04-21T23:38:22.776Z,47.80
2024-04-21T23:40:52.318Z,47.90
2024-04-21T23:43:21.895Z,47.90
2024-04-21T23:45:51.609Z,47.80
2024-04-21T23:48:18.655Z,47.90
2024-04-21T23:50:48.249Z,48.10
2024-04-21T23:53:15.226Z,48.00
2024-04-21T23:55:44.793Z,47.90
2024-04-21T23:58:11.754Z,48.10
